createdAt,value
2022-08-01T00:00:57.178Z,16.25
2022-08-01T00:03:25.055Z,16.23
2022-08-01T00:05:52.984Z,16.08
2022-08-01T00:08:20.939Z,12.82
2022-08-01T00:10:48.829Z,13.90
2022-08-01T00:13:18.055Z,15.45
2022-08-01T00:15:51.874Z,14.02
2022-08-01T00:18:22.684Z,14.40
2022-08-01T00:20:50.643Z,16.50
2022-08-01T00:23:18.515Z,15.48
2022-08-01T00:25:46.491Z,13.20
2022-08-01T00:28:14.679Z,16.30
2022-08-01T00:30:43.873Z,15.82
2022-08-01T00:33:12.784Z,16.30
2022-08-01T00:35:41.382Z,13.13
2022-08-01T00:38:09.215Z,17.55
2022-08-01T00:40:37.147Z,12.27
2022-08-01T00:43:05.381Z,13.23
2022-08-01T00:45:33.418Z,13.60
2022-08-01T00:48:02.617Z,16.90
2022-08-01T00:50:30.616Z,15.23
2022-08-01T00:53:00.349Z,14.00
2022-08-01T00:55:29.110Z,13.73
2022-08-01T00:58:03.125Z,15.68
2022-08-01T01:00:53.245Z,12.63
2022-08-01T01:03:58.012Z,14.38
2022-08-01T01:06:24.337Z,10.63
2022-08-01T01:09:04.967Z,11.80
2022-08-01T01:11:42.814Z,16.00
2022-08-01T01:14:15.752Z,10.52
2022-08-01T01:16:46.633Z,8.80
2022-08-01T01:19:22.832Z,10.98
2022-08-01T01:22:12.185Z,9.82
2022-08-01T01:24:47.119Z,11.77
2022-08-01T01:27:23.267Z,11.77
2022-08-01T01:30:00.540Z,10.68
2022-08-01T01:32:35.026Z,9.68
2022-08-01T01:35:08.567Z,8.52
2022-08-01T01:37:40.464Z,9.82
2022-08-01T01:40:11.691Z,8.82
2022-08-01T01:42:41.756Z,11.05
2022-08-01T01:45:11.520Z,8.32
2022-08-01T01:47:40.781Z,10.40
2022-08-01T01:50:11.278Z,9.18
2022-08-01T01:52:41.929Z,9.35
2022-08-01T01:55:11.781Z,10.43
2022-08-01T01:57:42.318Z,10.40
2022-08-01T02:00:13.353Z,9.75
2022-08-01T02:02:43.445Z,8.15
2022-08-01T02:05:14.434Z,11.15
2022-08-01T02:07:43.814Z,9.23
2022-08-01T02:10:13.834Z,10.15
2022-08-01T02:12:46.619Z,9.15
2022-08-01T02:15:17.587Z,8.90
2022-08-01T02:17:49.616Z,10.75
2022-08-01T02:20:18.933Z,10.48
2022-08-01T02:22:52.298Z,12.15
2022-08-01T02:25:24.890Z,9.52
2022-08-01T02:28:01.696Z,8.70
2022-08-01T02:30:36.197Z,9.95
2022-08-01T02:33:09.871Z,13.77
2022-08-01T02:36:30.095Z,14.07
2022-08-01T02:38:38.265Z,8.73
2022-08-01T02:41:10.432Z,8.25
2022-08-01T02:43:40.456Z,8.07
2022-08-01T02:46:13.746Z,10.73
2022-08-01T02:48:44.921Z,10.23
2022-08-01T02:51:14.513Z,12.88
2022-08-01T02:53:44.939Z,11.48
2022-08-01T02:56:15.507Z,8.27
2022-08-01T02:58:45.096Z,11.48
2022-08-01T03:01:17.335Z,15.48
2022-08-01T03:03:48.460Z,9.18
2022-08-01T03:06:17.800Z,11.05
2022-08-01T03:08:47.686Z,10.02
2022-08-01T03:11:17.134Z,9.52
2022-08-01T03:13:46.876Z,9.38
2022-08-01T03:16:18.830Z,11.18
2022-08-01T03:18:48.316Z,9.70
2022-08-01T03:21:16.424Z,9.85
2022-08-01T03:23:45.533Z,13.52
2022-08-01T03:26:14.090Z,10.15
2022-08-01T03:28:44.026Z,10.07
2022-08-01T03:31:14.665Z,12.73
2022-08-01T03:34:10.799Z,10.30
2022-08-01T03:36:46.790Z,7.95
2022-08-01T03:39:20.208Z,10.68
2022-08-01T03:41:57.063Z,10.25
2022-08-01T03:44:28.495Z,9.45
2022-08-01T03:47:03.156Z,9.82
2022-08-01T03:49:35.331Z,7.88
2022-08-01T03:52:06.404Z,11.02
2022-08-01T03:54:37.963Z,8.23
2022-08-01T03:57:07.721Z,11.40
2022-08-01T03:59:38.895Z,7.97
2022-08-01T04:02:08.519Z,13.60
2022-08-01T04:04:38.249Z,11.25
2022-08-01T04:07:07.919Z,10.35
2022-08-01T04:09:36.319Z,8.32
2022-08-01T04:12:11.943Z,11.60
2022-08-01T04:14:40.595Z,15.60
2022-08-01T04:17:08.620Z,16.98
2022-08-01T04:19:38.103Z,15.65
2022-08-01T04:22:07.602Z,13.63
2022-08-01T04:24:38.673Z,13.88
2022-08-01T04:27:11.834Z,26.98
2022-08-01T04:29:40.611Z,23.63
2022-08-01T04:32:14.208Z,25.38
2022-08-01T04:34:48.215Z,26.15
2022-08-01T04:37:18.483Z,26.90
2022-08-01T04:39:51.225Z,26.98
2022-08-01T04:42:25.218Z,24.05
2022-08-01T04:44:59.323Z,23.33
2022-08-01T04:47:28.049Z,23.48
2022-08-01T04:49:57.980Z,24.60
2022-08-01T04:52:35.235Z,22.05
2022-08-01T04:55:03.152Z,26.35
2022-08-01T04:57:32.139Z,21.75
2022-08-01T05:00:00.293Z,25.63
2022-08-01T05:02:30.031Z,27.50
2022-08-01T05:05:00.398Z,22.35
2022-08-01T05:07:28.432Z,20.02
2022-08-01T05:09:56.290Z,18.00
2022-08-01T05:12:24.221Z,12.95
2022-08-01T05:14:52.089Z,13.85
2022-08-01T05:17:20.202Z,12.40
2022-08-01T05:19:48.156Z,12.27
2022-08-01T05:22:17.904Z,13.45
2022-08-01T05:24:47.081Z,14.10
2022-08-01T05:27:17.232Z,14.65
2022-08-01T05:29:47.301Z,15.50
2022-08-01T05:32:15.902Z,10.50
2022-08-01T05:34:44.575Z,9.30
2022-08-01T05:37:12.564Z,10.85
2022-08-01T05:39:41.880Z,11.98
2022-08-01T05:42:09.768Z,12.10
2022-08-01T05:44:37.713Z,12.07
2022-08-01T05:47:05.826Z,11.80
2022-08-01T05:49:33.785Z,14.45
2022-08-01T05:52:03.280Z,14.63
2022-08-01T05:54:31.719Z,12.88
2022-08-01T05:57:02.686Z,15.60
2022-08-01T05:59:31.250Z,17.20
2022-08-01T06:01:59.377Z,14.50
2022-08-01T06:04:27.363Z,13.95
2022-08-01T06:06:55.365Z,13.90
2022-08-01T06:09:23.548Z,12.48
2022-08-01T06:11:51.518Z,12.75
2022-08-01T06:14:20.837Z,9.75
2022-08-01T06:16:48.751Z,11.52
2022-08-01T06:19:16.652Z,8.80
2022-08-01T06:21:44.518Z,10.05
2022-08-01T06:24:12.462Z,12.20
2022-08-01T06:26:40.398Z,8.98
2022-08-01T06:29:09.956Z,8.48
2022-08-01T06:31:39.942Z,9.45
2022-08-01T06:34:08.058Z,10.27
2022-08-01T06:36:36.106Z,8.73
2022-08-01T06:39:04.138Z,7.07
2022-08-01T06:41:32.008Z,7.13
2022-08-01T06:44:03.254Z,10.70
2022-08-01T06:46:32.381Z,8.38
2022-08-01T06:49:01.838Z,7.18
2022-08-01T06:51:30.079Z,8.45
2022-08-01T06:53:58.205Z,8.48
2022-08-01T06:56:26.193Z,6.93
2022-08-01T06:58:54.133Z,6.10
2022-08-01T07:01:22.256Z,6.28
2022-08-01T07:03:54.664Z,8.23
2022-08-01T07:06:26.228Z,7.35
2022-08-01T07:08:55.208Z,8.45
2022-08-01T07:11:23.827Z,8.13
2022-08-01T07:13:52.247Z,7.95
2022-08-01T07:16:20.326Z,8.73
2022-08-01T07:18:48.293Z,6.90
2022-08-01T07:21:38.286Z,5.80
2022-08-01T07:24:12.889Z,9.15
2022-08-01T07:26:53.321Z,5.00
2022-08-01T07:29:25.337Z,5.38
2022-08-01T07:31:55.170Z,5.15
2022-08-01T07:34:25.064Z,5.22
2022-08-01T07:36:53.715Z,7.22
2022-08-01T07:39:23.077Z,5.85
2022-08-01T07:42:06.773Z,4.43
2022-08-01T07:44:36.754Z,4.80
2022-08-01T07:47:05.290Z,6.43
2022-08-01T07:49:37.686Z,6.38
2022-08-01T07:52:08.328Z,4.47
2022-08-01T07:54:37.713Z,4.60
2022-08-01T07:57:06.320Z,4.97
2022-08-01T07:59:34.322Z,5.65
2022-08-01T08:02:02.342Z,5.28
2022-08-01T08:04:30.415Z,7.13
2022-08-01T08:06:58.616Z,6.18
2022-08-01T08:09:26.567Z,5.70
2022-08-01T08:11:55.886Z,6.90
2022-08-01T08:14:32.826Z,6.05
2022-08-01T08:17:01.823Z,6.97
2022-08-01T08:19:37.493Z,5.28
2022-08-01T08:22:08.014Z,6.75
2022-08-01T08:24:36.791Z,7.13
2022-08-01T08:27:16.075Z,5.90
2022-08-01T08:29:45.042Z,5.85
2022-08-01T08:32:14.131Z,5.70
2022-08-01T08:34:42.776Z,4.70
2022-08-01T08:37:11.643Z,4.07
2022-08-01T08:39:41.765Z,4.18
2022-08-01T08:42:12.057Z,4.10
2022-08-01T08:44:43.690Z,7.32
2022-08-01T08:47:20.250Z,4.20
2022-08-01T08:49:50.225Z,3.72
2022-08-01T08:52:21.227Z,4.40
2022-08-01T08:54:50.955Z,3.50
2022-08-01T08:57:21.460Z,3.20
2022-08-01T08:59:52.985Z,3.45
2022-08-01T09:02:21.052Z,4.47
2022-08-01T09:04:51.134Z,4.50
2022-08-01T09:07:19.099Z,3.15
2022-08-01T09:09:49.244Z,3.65
2022-08-01T09:12:18.630Z,2.78
2022-08-01T09:14:47.776Z,3.90
2022-08-01T09:17:17.640Z,2.50
2022-08-01T09:19:48.903Z,2.58
2022-08-01T09:22:19.611Z,2.10
2022-08-01T09:25:00.303Z,1.83
2022-08-01T09:27:28.474Z,2.88
2022-08-01T09:30:00.490Z,2.40
2022-08-01T09:32:35.944Z,2.20
2022-08-01T09:35:31.252Z,4.13
2022-08-01T09:38:17.520Z,3.55
2022-08-01T09:40:49.915Z,3.20
2022-08-01T09:43:20.796Z,2.20
2022-08-01T09:45:50.835Z,3.10
2022-08-01T09:48:28.506Z,2.35
2022-08-01T09:51:04.661Z,2.95
2022-08-01T09:53:50.930Z,3.67
2022-08-01T09:56:20.954Z,2.30
2022-08-01T09:59:00.434Z,2.00
2022-08-01T10:01:37.520Z,2.20
2022-08-01T10:04:11.680Z,1.90
2022-08-01T10:06:41.513Z,2.25
2022-08-01T10:09:10.031Z,2.40
2022-08-01T10:11:40.138Z,3.40
2022-08-01T10:14:09.636Z,4.05
2022-08-01T10:16:38.935Z,3.08
2022-08-01T10:19:14.665Z,2.15
2022-08-01T10:21:58.091Z,2.90
2022-08-01T10:24:33.547Z,2.83
2022-08-01T10:27:08.270Z,2.88
2022-08-01T10:29:58.979Z,2.60
2022-08-01T10:32:31.164Z,3.38
2022-08-01T10:35:06.519Z,6.13
2022-08-01T10:37:35.631Z,4.68
2022-08-01T10:40:35.452Z,3.00
2022-08-01T10:43:04.792Z,5.88
2022-08-01T10:45:34.460Z,3.53
2022-08-01T10:48:11.947Z,2.88
2022-08-01T10:50:48.498Z,3.10
2022-08-01T10:53:23.269Z,2.72
2022-08-01T10:56:02.647Z,2.88
2022-08-01T10:58:39.764Z,2.30
2022-08-01T11:01:25.875Z,3.25
2022-08-01T11:04:15.606Z,2.90
2022-08-01T11:07:08.954Z,4.93
2022-08-01T11:09:47.052Z,3.95
2022-08-01T11:12:24.894Z,2.63
2022-08-01T11:15:30.110Z,3.17
2022-08-01T11:18:04.493Z,2.40
2022-08-01T11:20:39.582Z,2.33
2022-08-01T11:23:21.625Z,4.00
2022-08-01T11:26:29.295Z,2.90
2022-08-01T11:29:23.452Z,3.53
2022-08-01T11:31:53.711Z,5.57
2022-08-01T11:34:22.358Z,3.25
2022-08-01T11:36:59.535Z,2.72
2022-08-01T11:39:30.270Z,2.60
2022-08-01T11:42:20.690Z,2.65
2022-08-01T11:44:52.647Z,3.08
2022-08-01T11:47:40.882Z,2.83
2022-08-01T11:50:32.780Z,2.93
2022-08-01T11:53:02.293Z,3.70
2022-08-01T11:55:32.263Z,4.55
2022-08-01T11:58:04.652Z,3.35
2022-08-01T12:00:33.280Z,3.40
2022-08-01T12:03:04.466Z,3.78
2022-08-01T12:05:36.014Z,2.60
2022-08-01T12:08:06.211Z,3.05
2022-08-01T12:10:47.135Z,4.45
2022-08-01T12:13:19.003Z,4.85
2022-08-01T12:15:49.786Z,2.67
2022-08-01T12:18:20.456Z,3.13
2022-08-01T12:20:57.280Z,2.70
2022-08-01T12:23:25.725Z,2.50
2022-08-01T12:25:55.713Z,3.78
2022-08-01T12:28:23.973Z,2.90
2022-08-01T12:30:52.687Z,2.40
2022-08-01T12:33:23.437Z,2.53
2022-08-01T12:35:53.783Z,3.00
2022-08-01T12:38:24.062Z,3.90
2022-08-01T12:40:53.580Z,3.40
2022-08-01T12:43:29.021Z,7.93
2022-08-01T12:46:00.150Z,2.97
2022-08-01T12:48:29.340Z,4.10
2022-08-01T12:51:01.505Z,3.20
2022-08-01T12:53:40.165Z,3.10
2022-08-01T12:56:10.658Z,3.58
2022-08-01T12:58:40.709Z,5.20
2022-08-01T13:01:11.811Z,3.40
2022-08-01T13:03:40.259Z,3.90
2022-08-01T13:06:18.210Z,6.55
2022-08-01T13:08:47.133Z,5.25
2022-08-01T13:11:18.406Z,3.13
2022-08-01T13:13:50.235Z,5.22
2022-08-01T13:16:34.262Z,2.58
2022-08-01T13:19:07.636Z,6.05
2022-08-01T13:21:52.975Z,6.78
2022-08-01T13:24:28.308Z,2.95
2022-08-01T13:26:59.729Z,2.03
2022-08-01T13:29:34.070Z,1.88
2022-08-01T13:32:29.455Z,2.10
2022-08-01T13:35:07.133Z,5.22
2022-08-01T13:37:37.270Z,2.92
2022-08-01T13:40:08.295Z,1.70
2022-08-01T13:42:36.565Z,1.80
2022-08-01T13:45:14.191Z,1.65
2022-08-01T13:48:03.368Z,1.70
2022-08-01T13:50:31.092Z,1.90
2022-08-01T13:52:59.096Z,2.03
2022-08-01T13:55:31.119Z,1.80
2022-08-01T13:58:02.288Z,3.95
2022-08-01T14:00:31.821Z,1.75
2022-08-01T14:03:00.009Z,2.28
2022-08-01T14:05:28.302Z,1.65
2022-08-01T14:07:56.865Z,1.95
2022-08-01T14:10:25.377Z,1.73
2022-08-01T14:12:56.869Z,2.65
2022-08-01T14:15:38.172Z,3.05
2022-08-01T14:18:10.815Z,1.95
2022-08-01T14:20:40.773Z,1.80
2022-08-01T14:23:09.479Z,3.58
2022-08-01T14:26:03.433Z,1.65
2022-08-01T14:28:29.489Z,1.75
2022-08-01T14:30:58.689Z,2.70
2022-08-01T14:33:29.900Z,1.50
2022-08-01T14:36:06.680Z,1.53
2022-08-01T14:38:46.922Z,9.50
2022-08-01T14:41:15.409Z,3.83
2022-08-01T14:43:44.116Z,1.77
2022-08-01T14:46:13.599Z,1.63
2022-08-01T14:48:43.281Z,2.37
2022-08-01T14:51:11.573Z,4.83
2022-08-01T14:53:41.582Z,2.37
2022-08-01T14:56:15.263Z,1.90
2022-08-01T14:58:43.729Z,2.13
2022-08-01T15:01:12.180Z,2.47
2022-08-01T15:03:40.585Z,4.55
2022-08-01T15:06:12.235Z,3.53
2022-08-01T15:08:40.586Z,2.15
2022-08-01T15:11:10.413Z,3.00
2022-08-01T15:13:42.635Z,3.92
2022-08-01T15:16:11.932Z,1.98
2022-08-01T15:18:40.645Z,3.25
2022-08-01T15:21:17.189Z,3.67
2022-08-01T15:23:53.375Z,2.40
2022-08-01T15:26:21.356Z,2.53
2022-08-01T15:28:49.325Z,2.40
2022-08-01T15:31:17.281Z,3.97
2022-08-01T15:33:46.079Z,3.40
2022-08-01T15:36:15.825Z,2.17
2022-08-01T15:38:44.266Z,2.00
2022-08-01T15:41:12.493Z,2.10
2022-08-01T15:43:44.193Z,1.98
2022-08-01T15:46:13.101Z,1.95
2022-08-01T15:48:41.801Z,2.38
2022-08-01T15:51:09.950Z,1.95
2022-08-01T15:53:40.287Z,2.17
2022-08-01T15:56:08.337Z,1.70
2022-08-01T15:58:36.613Z,1.95
2022-08-01T16:01:04.727Z,2.10
2022-08-01T16:03:32.695Z,2.35
2022-08-01T16:06:01.358Z,2.42
2022-08-01T16:08:29.368Z,1.60
2022-08-01T16:10:58.598Z,2.95
2022-08-01T16:13:26.622Z,2.50
2022-08-01T16:15:54.772Z,1.80
2022-08-01T16:18:23.644Z,2.50
2022-08-01T16:20:51.630Z,4.63
2022-08-01T16:23:20.246Z,2.60
2022-08-01T16:25:48.349Z,1.92
2022-08-01T16:28:18.135Z,2.00
2022-08-01T16:30:48.905Z,1.98
2022-08-01T16:33:45.612Z,1.65
2022-08-01T16:36:17.018Z,2.33
2022-08-01T16:38:45.604Z,1.80
2022-08-01T16:41:20.152Z,2.85
2022-08-01T16:43:53.690Z,1.90
2022-08-01T16:46:23.945Z,1.85
2022-08-01T16:48:51.916Z,2.28
2022-08-01T16:51:20.061Z,2.53
2022-08-01T16:53:47.978Z,2.05
2022-08-01T16:56:16.164Z,3.28
2022-08-01T16:58:44.088Z,1.95
2022-08-01T17:01:59.738Z,2.33
2022-08-01T17:04:03.018Z,2.20
2022-08-01T17:06:31.529Z,2.35
2022-08-01T17:08:59.873Z,2.45
2022-08-01T17:11:28.070Z,2.47
2022-08-01T17:13:56.204Z,2.33
2022-08-01T17:16:25.593Z,2.95
2022-08-01T17:18:54.050Z,2.40
2022-08-01T17:21:22.016Z,2.40
2022-08-01T17:23:50.256Z,2.45
2022-08-01T17:26:18.114Z,3.10
2022-08-01T17:28:46.100Z,2.20
2022-08-01T17:31:13.982Z,1.85
2022-08-01T17:33:46.042Z,3.67
2022-08-01T17:36:17.755Z,2.10
2022-08-01T17:38:45.882Z,2.88
2022-08-01T17:41:14.180Z,2.30
2022-08-01T17:43:42.237Z,1.80
2022-08-01T17:46:10.289Z,3.60
2022-08-01T17:48:38.213Z,2.40
2022-08-01T17:51:07.541Z,2.22
2022-08-01T17:53:35.831Z,2.22
2022-08-01T17:56:05.828Z,2.15
2022-08-01T17:58:51.275Z,5.18
2022-08-01T18:01:21.200Z,2.70
2022-08-01T18:03:49.497Z,3.70
2022-08-01T18:06:23.421Z,2.08
2022-08-01T18:08:55.585Z,2.08
2022-08-01T18:11:27.083Z,2.47
2022-08-01T18:13:56.890Z,2.30
2022-08-01T18:16:27.813Z,2.30
2022-08-01T18:18:56.077Z,2.40
2022-08-01T18:21:25.478Z,2.20
2022-08-01T18:23:53.481Z,3.90
2022-08-01T18:26:21.677Z,4.30
2022-08-01T18:28:49.931Z,3.80
2022-08-01T18:31:20.422Z,3.60
2022-08-01T18:33:49.709Z,2.60
2022-08-01T18:36:32.846Z,2.17
2022-08-01T18:39:07.102Z,2.58
2022-08-01T18:41:39.093Z,2.90
2022-08-01T18:44:09.027Z,3.20
2022-08-01T18:46:38.847Z,5.22
2022-08-01T18:49:07.986Z,4.25
2022-08-01T18:51:42.967Z,4.45
2022-08-01T18:54:13.390Z,4.55
2022-08-01T18:56:42.199Z,3.05
2022-08-01T18:59:10.397Z,2.30
2022-08-01T19:01:39.833Z,3.15
2022-08-01T19:04:08.253Z,3.10
2022-08-01T19:06:36.573Z,2.50
2022-08-01T19:09:05.142Z,6.10
2022-08-01T19:11:35.391Z,2.70
2022-08-01T19:14:04.308Z,2.90
2022-08-01T19:16:32.529Z,9.98
2022-08-01T19:19:01.810Z,3.38
2022-08-01T19:21:33.040Z,2.92
2022-08-01T19:24:22.729Z,2.97
2022-08-01T19:26:55.470Z,3.13
2022-08-01T19:29:35.060Z,2.88
2022-08-01T19:32:06.807Z,3.13
2022-08-01T19:34:37.510Z,2.40
2022-08-01T19:37:05.816Z,2.63
2022-08-01T19:39:33.979Z,3.00
2022-08-01T19:42:04.156Z,4.40
2022-08-01T19:44:32.822Z,2.63
2022-08-01T19:47:01.870Z,5.20
2022-08-01T19:49:29.749Z,3.38
2022-08-01T19:52:02.381Z,2.83
2022-08-01T19:54:34.091Z,4.68
2022-08-01T19:57:05.913Z,3.80
2022-08-01T19:59:36.895Z,3.60
2022-08-01T20:02:05.656Z,3.05
2022-08-01T20:04:34.699Z,3.85
2022-08-01T20:07:04.544Z,4.47
2022-08-01T20:09:33.514Z,4.68
2022-08-01T20:12:02.984Z,4.72
2022-08-01T20:14:30.862Z,3.58
2022-08-01T20:16:58.759Z,3.75
2022-08-01T20:19:27.397Z,4.18
2022-08-01T20:22:02.778Z,4.65
2022-08-01T20:24:40.973Z,2.90
2022-08-01T20:27:13.050Z,5.30
2022-08-01T20:29:41.998Z,3.20
2022-08-01T20:32:10.273Z,2.90
2022-08-01T20:34:40.267Z,3.97
2022-08-01T20:37:12.852Z,4.40
2022-08-01T20:39:43.827Z,3.30
2022-08-01T20:42:13.858Z,3.70
2022-08-01T20:44:42.822Z,6.57
2022-08-01T20:47:11.463Z,3.30
2022-08-01T20:49:39.630Z,3.95
2022-08-01T20:52:11.726Z,6.38
2022-08-01T20:54:41.537Z,4.03
2022-08-01T20:57:16.983Z,4.72
2022-08-01T20:59:55.977Z,4.28
2022-08-01T21:02:37.430Z,3.05
2022-08-01T21:05:07.447Z,7.28
2022-08-01T21:07:39.735Z,5.07
2022-08-01T21:10:10.026Z,3.92
2022-08-01T21:12:51.252Z,5.20
2022-08-01T21:15:28.178Z,3.90
2022-08-01T21:18:02.556Z,3.53
2022-08-01T21:20:33.274Z,3.67
2022-08-01T21:23:11.218Z,8.30
2022-08-01T21:25:39.171Z,3.97
2022-08-01T21:28:08.527Z,4.78
2022-08-01T21:30:37.420Z,3.10
2022-08-01T21:33:12.060Z,4.63
2022-08-01T21:35:41.765Z,4.95
2022-08-01T21:38:10.580Z,7.80
2022-08-01T21:40:38.844Z,3.95
2022-08-01T21:43:09.480Z,4.45
2022-08-01T21:45:39.294Z,3.20
2022-08-01T21:48:26.883Z,7.30
2022-08-01T21:50:59.299Z,3.53
2022-08-01T21:53:38.795Z,3.95
2022-08-01T21:56:22.422Z,3.67
2022-08-01T21:58:57.382Z,3.50
2022-08-01T22:01:33.688Z,3.97
2022-08-01T22:04:28.258Z,5.18
2022-08-01T22:06:58.146Z,3.22
2022-08-01T22:09:29.829Z,4.55
2022-08-01T22:12:09.036Z,7.30
2022-08-01T22:14:41.571Z,2.85
2022-08-01T22:17:12.723Z,3.80
2022-08-01T22:19:45.651Z,3.90
2022-08-01T22:22:44.537Z,4.90
2022-08-01T22:25:03.236Z,4.05
2022-08-01T22:28:05.700Z,4.72
2022-08-01T22:30:21.796Z,3.67
2022-08-01T22:33:07.365Z,4.15
2022-08-01T22:35:40.113Z,4.72
2022-08-01T22:38:09.724Z,3.30
2022-08-01T22:40:44.662Z,3.22
2022-08-01T22:43:19.402Z,4.75
2022-08-01T22:45:57.170Z,9.27
2022-08-01T22:48:32.776Z,6.15
2022-08-01T22:51:07.747Z,3.92
2022-08-01T22:53:43.734Z,4.43
2022-08-01T22:56:12.854Z,4.22
2022-08-01T22:58:42.266Z,3.80
2022-08-01T23:01:20.990Z,5.03
2022-08-01T23:03:51.891Z,4.85
2022-08-01T23:06:25.055Z,3.80
2022-08-01T23:08:56.653Z,3.03
2022-08-01T23:11:25.304Z,5.00
2022-08-01T23:13:53.619Z,4.05
2022-08-01T23:16:23.040Z,5.07
2022-08-01T23:18:55.065Z,3.95
2022-08-01T23:21:23.980Z,6.35
2022-08-01T23:23:52.307Z,3.78
2022-08-01T23:26:21.046Z,6.20
2022-08-01T23:28:49.481Z,3.72
2022-08-01T23:31:18.249Z,4.45
2022-08-01T23:33:48.088Z,3.60
2022-08-01T23:36:17.531Z,4.60
2022-08-01T23:38:45.879Z,3.45
2022-08-01T23:41:15.855Z,3.28
2022-08-01T23:43:52.346Z,4.72
2022-08-01T23:46:20.617Z,3.28
2022-08-01T23:48:49.835Z,5.05
2022-08-01T23:51:24.776Z,4.25
2022-08-01T23:53:53.332Z,5.25
2022-08-01T23:56:25.101Z,4.22
2022-08-01T23:58:53.606Z,2.83
